sensor_id;sensor_type;location;lat;lon;timestamp;pressure;altitude;pressure_sealevel;temperature;humidity
9740;BME280;4909;42.680;26.324;2023-04-04T00:02:13;97464.84;;;11.55;100.00
9740;BME280;4909;42.680;26.324;2023-04-04T00:04:40;97478.63;;;11.48;100.00
9740;BME280;4909;42.680;26.324;2023-04-04T00:07:07;97500.97;;;11.58;100.00
9740;BME280;4909;42.680;26.324;2023-04-04T00:09:35;97483.25;;;11.58;100.00
9740;BME280;4909;42.680;26.324;2023-04-04T00:12:02;97472.50;;;11.47;100.00
9740;BME280;4909;42.680;26.324;2023-04-04T00:14:29;97479.50;;;11.48;100.00
9740;BME280;4909;42.680;26.324;2023-04-04T00:16:56;97495.72;;;11.44;100.00
9740;BME280;4909;42.680;26.324;2023-04-04T00:19:23;97501.56;;;11.36;100.00
9740;BME280;4909;42.680;26.324;2023-04-04T00:21:50;97499.75;;;11.37;100.00
9740;BME280;4909;42.680;26.324;2023-04-04T00:24:17;97501.44;;;11.38;100.00
9740;BME280;4909;42.680;26.324;2023-04-04T00:26:45;97495.44;;;11.48;100.00
9740;BME280;4909;42.680;26.324;2023-04-04T00:29:12;97503.72;;;11.44;100.00
9740;BME280;4909;42.680;26.324;2023-04-04T00:31:38;97478.09;;;11.43;100.00
9740;BME280;4909;42.680;26.324;2023-04-04T00:34:05;97506.59;;;11.53;100.00
9740;BME280;4909;42.680;26.324;2023-04-04T00:36:32;97525.56;;;11.61;100.00
9740;BME280;4909;42.680;26.324;2023-04-04T00:38:59;97494.94;;;11.56;100.00
9740;BME280;4909;42.680;26.324;2023-04-04T00:41:26;97497.72;;;11.67;100.00
9740;BME280;4909;42.680;26.324;2023-04-04T00:43:55;97497.97;;;11.76;100.00
9740;BME280;4909;42.680;26.324;2023-04-04T00:46:22;97476.03;;;11.60;100.00
9740;BME280;4909;42.680;26.324;2023-04-04T00:48:52;97518.97;;;11.67;100.00
9740;BME280;4909;42.680;26.324;2023-04-04T00:51:19;97515.94;;;11.73;100.00
9740;BME280;4909;42.680;26.324;2023-04-04T00:53:46;97505.16;;;11.89;100.00
9740;BME280;4909;42.680;26.324;2023-04-04T00:56:13;97500.84;;;11.73;100.00
9740;BME280;4909;42.680;26.324;2023-04-04T00:58:41;97504.19;;;11.90;100.00
9740;BME280;4909;42.680;26.324;2023-04-04T01:01:10;97504.56;;;11.71;100.00
9740;BME280;4909;42.680;26.324;2023-04-04T01:03:37;97526.63;;;11.71;100.00
9740;BME280;4909;42.680;26.324;2023-04-04T01:06:05;97531.91;;;11.73;100.00
9740;BME280;4909;42.680;26.324;2023-04-04T01:08:33;97502.00;;;11.69;100.00
9740;BME280;4909;42.680;26.324;2023-04-04T01:11:01;97498.09;;;11.48;100.00
9740;BME280;4909;42.680;26.324;2023-04-04T01:13:28;97514.03;;;11.48;100.00
9740;BME280;4909;42.680;26.324;2023-04-04T01:15:56;97503.47;;;11.34;100.00
9740;BME280;4909;42.680;26.324;2023-04-04T01:18:25;97512.25;;;11.22;100.00
9740;BME280;4909;42.680;26.324;2023-04-04T01:20:56;97489.50;;;11.18;100.00
9740;BME280;4909;42.680;26.324;2023-04-04T01:23:35;97510.88;;;11.29;100.00
9740;BME280;4909;42.680;26.324;2023-04-04T01:26:09;97493.47;;;11.11;100.00
9740;BME280;4909;42.680;26.324;2023-04-04T01:28:36;97509.59;;;11.22;100.00
9740;BME280;4909;42.680;26.324;2023-04-04T01:31:05;97507.31;;;11.16;100.00
9740;BME280;4909;42.680;26.324;2023-04-04T01:33:36;97498.09;;;11.21;100.00
9740;BME280;4909;42.680;26.324;2023-04-04T01:36:09;97498.66;;;11.26;100.00
9740;BME280;4909;42.680;26.324;2023-04-04T01:38:45;97497.25;;;11.21;100.00
9740;BME280;4909;42.680;26.324;2023-04-04T01:41:19;97491.59;;;11.13;100.00
9740;BME280;4909;42.680;26.324;2023-04-04T01:43:46;97505.72;;;11.13;100.00
9740;BME280;4909;42.680;26.324;2023-04-04T01:46:15;97482.56;;;11.15;100.00
9740;BME280;4909;42.680;26.324;2023-04-04T01:48:42;97508.63;;;11.23;100.00
9740;BME280;4909;42.680;26.324;2023-04-04T01:51:09;97512.38;;;11.06;100.00
9740;BME280;4909;42.680;26.324;2023-04-04T01:53:36;97522.19;;;11.18;100.00
9740;BME280;4909;42.680;26.324;2023-04-04T01:56:03;97510.34;;;10.83;100.00
9740;BME280;4909;42.680;26.324;2023-04-04T01:58:31;97528.53;;;10.61;100.00
9740;BME280;4909;42.680;26.324;2023-04-04T02:00:58;97534.97;;;10.71;100.00
9740;BME280;4909;42.680;26.324;2023-04-04T02:03:25;97519.53;;;10.63;100.00
9740;BME280;4909;42.680;26.324;2023-04-04T02:05:51;97533.47;;;10.53;100.00
9740;BME280;4909;42.680;26.324;2023-04-04T02:08:18;97538.41;;;10.30;100.00
9740;BME280;4909;42.680;26.324;2023-04-04T02:10:45;97533.19;;;10.29;100.00
9740;BME280;4909;42.680;26.324;2023-04-04T02:13:12;97524.84;;;10.35;100.00
9740;BME280;4909;42.680;26.324;2023-04-04T02:15:40;97525.31;;;10.27;100.00
9740;BME280;4909;42.680;26.324;2023-04-04T02:18:07;97530.44;;;10.44;100.00
9740;BME280;4909;42.680;26.324;2023-04-04T02:20:33;97509.88;;;10.20;100.00
9740;BME280;4909;42.680;26.324;2023-04-04T02:23:00;97513.91;;;10.11;100.00
9740;BME280;4909;42.680;26.324;2023-04-04T02:25:27;97512.63;;;10.18;100.00
9740;BME280;4909;42.680;26.324;2023-04-04T02:27:54;97501.25;;;10.16;100.00
9740;BME280;4909;42.680;26.324;2023-04-04T02:30:20;97511.75;;;10.32;100.00
9740;BME280;4909;42.680;26.324;2023-04-04T02:32:49;97516.38;;;10.14;100.00
9740;BME280;4909;42.680;26.324;2023-04-04T02:35:16;97516.50;;;10.27;100.00
9740;BME280;4909;42.680;26.324;2023-04-04T02:37:44;97511.59;;;10.21;100.00
9740;BME280;4909;42.680;26.324;2023-04-04T02:40:12;97499.28;;;10.20;100.00
9740;BME280;4909;42.680;26.324;2023-04-04T02:42:41;97479.16;;;10.01;100.00
9740;BME280;4909;42.680;26.324;2023-04-04T02:45:09;97497.88;;;10.13;100.00
9740;BME280;4909;42.680;26.324;2023-04-04T02:47:39;97485.59;;;10.12;100.00
9740;BME280;4909;42.680;26.324;2023-04-04T02:50:08;97467.97;;;9.96;100.00
9740;BME280;4909;42.680;26.324;2023-04-04T02:52:35;97478.09;;;10.04;100.00
9740;BME280;4909;42.680;26.324;2023-04-04T02:55:03;97482.22;;;10.24;100.00
9740;BME280;4909;42.680;26.324;2023-04-04T02:57:29;97476.19;;;10.36;100.00
9740;BME280;4909;42.680;26.324;2023-04-04T02:59:56;97432.69;;;10.24;100.00
9740;BME280;4909;42.680;26.324;2023-04-04T03:02:23;97481.91;;;10.57;100.00
9740;BME280;4909;42.680;26.324;2023-04-04T03:04:50;97474.63;;;10.60;100.00
9740;BME280;4909;42.680;26.324;2023-04-04T03:07:18;97468.84;;;10.54;100.00
9740;BME280;4909;42.680;26.324;2023-04-04T03:09:47;97471.13;;;10.60;100.00
9740;BME280;4909;42.680;26.324;2023-04-04T03:12:14;97424.34;;;10.44;100.00
9740;BME280;4909;42.680;26.324;2023-04-04T03:14:40;97472.66;;;10.64;100.00
9740;BME280;4909;42.680;26.324;2023-04-04T03:17:07;97457.97;;;10.58;100.00
9740;BME280;4909;42.680;26.324;2023-04-04T03:19:35;97460.53;;;10.45;100.00
9740;BME280;4909;42.680;26.324;2023-04-04T03:22:02;97455.59;;;10.54;100.00
9740;BME280;4909;42.680;26.324;2023-04-04T03:24:30;97458.16;;;10.55;100.00
9740;BME280;4909;42.680;26.324;2023-04-04T03:26:58;97468.47;;;10.60;100.00
9740;BME280;4909;42.680;26.324;2023-04-04T03:29:25;97463.94;;;10.48;100.00
9740;BME280;4909;42.680;26.324;2023-04-04T03:31:52;97470.38;;;10.43;100.00
9740;BME280;4909;42.680;26.324;2023-04-04T03:34:19;97474.47;;;10.49;100.00
9740;BME280;4909;42.680;26.324;2023-04-04T03:36:45;97473.09;;;10.56;100.00
9740;BME280;4909;42.680;26.324;2023-04-04T03:39:12;97479.47;;;10.54;100.00
9740;BME280;4909;42.680;26.324;2023-04-04T03:41:40;97484.97;;;10.65;100.00
9740;BME280;4909;42.680;26.324;2023-04-04T03:44:07;97449.53;;;10.52;100.00
9740;BME280;4909;42.680;26.324;2023-04-04T03:46:34;97471.44;;;10.55;100.00
9740;BME280;4909;42.680;26.324;2023-04-04T03:49:00;97462.63;;;10.55;100.00
9740;BME280;4909;42.680;26.324;2023-04-04T03:51:27;97440.63;;;10.53;100.00
9740;BME280;4909;42.680;26.324;2023-04-04T03:53:55;97432.00;;;10.49;100.00
9740;BME280;4909;42.680;26.324;2023-04-04T03:56:21;97464.66;;;10.78;100.00
9740;BME280;4909;42.680;26.324;2023-04-04T03:58:50;97465.66;;;10.89;100.00
9740;BME280;4909;42.680;26.324;2023-04-04T04:01:20;97461.81;;;10.67;100.00
9740;BME280;4909;42.680;26.324;2023-04-04T04:03:47;97455.31;;;10.44;100.00
9740;BME280;4909;42.680;26.324;2023-04-04T04:06:14;97473.81;;;10.45;100.00
9740;BME280;4909;42.680;26.324;2023-04-04T04:08:41;97463.06;;;10.61;100.00
9740;BME280;4909;42.680;26.324;2023-04-04T04:11:08;97471.50;;;10.68;100.00
9740;BME280;4909;42.680;26.324;2023-04-04T04:13:34;97468.47;;;10.60;100.00
9740;BME280;4909;42.680;26.324;2023-04-04T04:16:04;97466.88;;;10.57;100.00
9740;BME280;4909;42.680;26.324;2023-04-04T04:18:30;97467.91;;;10.55;100.00
9740;BME280;4909;42.680;26.324;2023-04-04T04:20:58;97429.84;;;10.27;100.00
9740;BME280;4909;42.680;26.324;2023-04-04T04:23:26;97464.47;;;10.67;100.00
9740;BME280;4909;42.680;26.324;2023-04-04T04:25:53;97462.88;;;10.64;100.00
9740;BME280;4909;42.680;26.324;2023-04-04T04:28:20;97460.03;;;10.53;100.00
9740;BME280;4909;42.680;26.324;2023-04-04T04:31:07;97450.00;;;10.58;100.00
9740;BME280;4909;42.680;26.324;2023-04-04T04:33:34;97449.81;;;10.47;100.00
9740;BME280;4909;42.680;26.324;2023-04-04T04:36:01;97450.72;;;10.60;100.00
9740;BME280;4909;42.680;26.324;2023-04-04T04:38:28;97450.56;;;10.63;100.00
9740;BME280;4909;42.680;26.324;2023-04-04T04:40:54;97449.03;;;10.73;100.00
9740;BME280;4909;42.680;26.324;2023-04-04T04:43:21;97428.06;;;10.83;100.00
9740;BME280;4909;42.680;26.324;2023-04-04T04:45:48;97430.66;;;10.97;100.00
9740;BME280;4909;42.680;26.324;2023-04-04T04:48:17;97433.75;;;11.04;100.00
9740;BME280;4909;42.680;26.324;2023-04-04T04:50:43;97429.97;;;11.08;100.00
9740;BME280;4909;42.680;26.324;2023-04-04T04:53:11;97424.44;;;11.11;100.00
9740;BME280;4909;42.680;26.324;2023-04-04T04:55:38;97420.78;;;11.26;100.00
9740;BME280;4909;42.680;26.324;2023-04-04T04:58:05;97408.22;;;11.15;100.00
9740;BME280;4909;42.680;26.324;2023-04-04T05:00:31;97386.41;;;11.10;100.00
9740;BME280;4909;42.680;26.324;2023-04-04T05:02:58;97406.13;;;11.33;100.00
9740;BME280;4909;42.680;26.324;2023-04-04T05:05:27;97419.00;;;11.39;100.00
9740;BME280;4909;42.680;26.324;2023-04-04T05:07:53;97400.72;;;11.34;100.00
9740;BME280;4909;42.680;26.324;2023-04-04T05:10:21;97405.63;;;11.41;100.00
9740;BME280;4909;42.680;26.324;2023-04-04T05:12:47;97400.41;;;11.39;100.00
9740;BME280;4909;42.680;26.324;2023-04-04T05:15:14;97395.00;;;11.41;100.00
9740;BME280;4909;42.680;26.324;2023-04-04T05:17:41;97407.41;;;11.27;100.00
9740;BME280;4909;42.680;26.324;2023-04-04T05:20:08;97384.34;;;11.28;100.00
9740;BME280;4909;42.680;26.324;2023-04-04T05:22:41;97380.63;;;11.30;100.00
9740;BME280;4909;42.680;26.324;2023-04-04T05:25:08;97384.16;;;11.44;100.00
9740;BME280;4909;42.680;26.324;2023-04-04T05:27:35;97386.81;;;11.31;100.00
9740;BME280;4909;42.680;26.324;2023-04-04T05:30:02;97395.09;;;11.39;100.00
9740;BME280;4909;42.680;26.324;2023-04-04T05:32:29;97382.75;;;11.38;100.00
9740;BME280;4909;42.680;26.324;2023-04-04T05:34:56;97370.56;;;11.36;100.00
9740;BME280;4909;42.680;26.324;2023-04-04T05:37:23;97371.94;;;11.41;100.00
9740;BME280;4909;42.680;26.324;2023-04-04T05:39:51;97363.31;;;11.38;100.00
9740;BME280;4909;42.680;26.324;2023-04-04T05:42:18;97364.94;;;11.40;100.00
9740;BME280;4909;42.680;26.324;2023-04-04T05:44:44;97362.81;;;11.32;100.00
9740;BME280;4909;42.680;26.324;2023-04-04T05:47:11;97362.38;;;11.39;100.00
9740;BME280;4909;42.680;26.324;2023-04-04T05:49:38;97351.00;;;11.37;100.00
9740;BME280;4909;42.680;26.324;2023-04-04T05:52:05;97360.47;;;11.41;100.00
9740;BME280;4909;42.680;26.324;2023-04-04T05:54:31;97349.19;;;11.62;100.00
9740;BME280;4909;42.680;26.324;2023-04-04T05:56:59;97341.28;;;11.75;100.00
9740;BME280;4909;42.680;26.324;2023-04-04T05:59:26;97339.22;;;11.66;100.00
9740;BME280;4909;42.680;26.324;2023-04-04T06:01:54;97323.91;;;11.69;100.00
9740;BME280;4909;42.680;26.324;2023-04-04T06:04:21;97340.19;;;11.77;100.00
9740;BME280;4909;42.680;26.324;2023-04-04T06:06:48;97346.38;;;11.91;100.00
9740;BME280;4909;42.680;26.324;2023-04-04T06:09:15;97311.16;;;12.00;100.00
9740;BME280;4909;42.680;26.324;2023-04-04T06:11:41;97347.91;;;12.31;100.00
9740;BME280;4909;42.680;26.324;2023-04-04T06:14:09;97349.88;;;12.40;100.00
9740;BME280;4909;42.680;26.324;2023-04-04T06:16:36;97348.84;;;12.30;100.00
9740;BME280;4909;42.680;26.324;2023-04-04T06:19:03;97345.56;;;12.27;100.00
9740;BME280;4909;42.680;26.324;2023-04-04T06:21:30;97351.06;;;12.49;100.00
9740;BME280;4909;42.680;26.324;2023-04-04T06:23:57;97349.44;;;12.46;100.00
9740;BME280;4909;42.680;26.324;2023-04-04T06:26:23;97355.56;;;12.59;100.00
9740;BME280;4909;42.680;26.324;2023-04-04T06:28:51;97345.78;;;12.60;100.00
9740;BME280;4909;42.680;26.324;2023-04-04T06:31:20;97346.50;;;12.38;100.00
9740;BME280;4909;42.680;26.324;2023-04-04T06:33:47;97353.06;;;12.58;100.00
9740;BME280;4909;42.680;26.324;2023-04-04T06:36:14;97348.53;;;12.71;100.00
9740;BME280;4909;42.680;26.324;2023-04-04T06:38:40;97350.59;;;12.79;100.00
9740;BME280;4909;42.680;26.324;2023-04-04T06:41:07;97349.72;;;12.91;100.00
9740;BME280;4909;42.680;26.324;2023-04-04T06:43:34;97340.59;;;13.06;100.00
9740;BME280;4909;42.680;26.324;2023-04-04T06:46:00;97338.63;;;12.97;100.00
9740;BME280;4909;42.680;26.324;2023-04-04T06:48:29;97336.47;;;13.02;100.00
9740;BME280;4909;42.680;26.324;2023-04-04T06:50:55;97341.53;;;13.05;100.00
9740;BME280;4909;42.680;26.324;2023-04-04T06:53:22;97345.06;;;13.05;100.00
9740;BME280;4909;42.680;26.324;2023-04-04T06:55:51;97342.94;;;12.98;100.00
9740;BME280;4909;42.680;26.324;2023-04-04T06:58:18;97359.53;;;13.14;100.00
9740;BME280;4909;42.680;26.324;2023-04-04T07:00:45;97345.41;;;13.01;100.00
9740;BME280;4909;42.680;26.324;2023-04-04T07:03:11;97365.00;;;13.00;100.00
9740;BME280;4909;42.680;26.324;2023-04-04T07:05:39;97369.53;;;13.11;100.00
9740;BME280;4909;42.680;26.324;2023-04-04T07:08:07;97366.38;;;12.82;100.00
9740;BME280;4909;42.680;26.324;2023-04-04T07:10:34;97377.00;;;12.58;100.00
9740;BME280;4909;42.680;26.324;2023-04-04T07:13:01;97382.72;;;12.28;100.00
9740;BME280;4909;42.680;26.324;2023-04-04T07:15:27;97370.63;;;11.73;100.00
9740;BME280;4909;42.680;26.324;2023-04-04T07:17:54;97365.69;;;11.67;100.00
9740;BME280;4909;42.680;26.324;2023-04-04T07:20:21;97372.22;;;11.76;100.00
9740;BME280;4909;42.680;26.324;2023-04-04T07:22:49;97373.34;;;11.59;100.00
9740;BME280;4909;42.680;26.324;2023-04-04T07:25:16;97382.00;;;11.75;100.00
9740;BME280;4909;42.680;26.324;2023-04-04T07:30:27;97385.28;;;11.92;100.00
9740;BME280;4909;42.680;26.324;2023-04-04T07:32:57;97391.66;;;11.76;100.00
9740;BME280;4909;42.680;26.324;2023-04-04T07:35:24;97377.31;;;11.79;100.00
9740;BME280;4909;42.680;26.324;2023-04-04T07:37:52;97387.84;;;11.93;100.00
9740;BME280;4909;42.680;26.324;2023-04-04T07:40:19;97387.75;;;11.95;100.00
9740;BME280;4909;42.680;26.324;2023-04-04T07:42:46;97382.25;;;11.58;100.00
9740;BME280;4909;42.680;26.324;2023-04-04T07:45:15;97389.81;;;11.64;100.00
9740;BME280;4909;42.680;26.324;2023-04-04T07:47:42;97383.41;;;11.81;100.00
9740;BME280;4909;42.680;26.324;2023-04-04T07:50:11;97377.53;;;11.89;100.00
9740;BME280;4909;42.680;26.324;2023-04-04T07:52:38;97362.13;;;11.81;100.00
9740;BME280;4909;42.680;26.324;2023-04-04T07:55:08;97368.50;;;12.04;100.00
9740;BME280;4909;42.680;26.324;2023-04-04T07:57:36;97359.03;;;12.00;100.00
9740;BME280;4909;42.680;26.324;2023-04-04T08:00:06;97379.53;;;11.98;100.00
9740;BME280;4909;42.680;26.324;2023-04-04T08:02:34;97361.28;;;11.81;100.00
9740;BME280;4909;42.680;26.324;2023-04-04T08:05:01;97382.72;;;12.03;100.00
9740;BME280;4909;42.680;26.324;2023-04-04T08:07:27;97369.13;;;12.07;100.00
9740;BME280;4909;42.680;26.324;2023-04-04T08:09:54;97372.06;;;12.15;100.00
9740;BME280;4909;42.680;26.324;2023-04-04T08:12:22;97377.81;;;12.22;100.00
9740;BME280;4909;42.680;26.324;2023-04-04T08:14:49;97375.03;;;12.36;100.00
9740;BME280;4909;42.680;26.324;2023-04-04T08:17:17;97369.25;;;12.42;100.00
9740;BME280;4909;42.680;26.324;2023-04-04T08:19:44;97369.97;;;12.57;100.00
9740;BME280;4909;42.680;26.324;2023-04-04T08:22:11;97372.06;;;12.64;100.00
9740;BME280;4909;42.680;26.324;2023-04-04T08:24:38;97366.81;;;12.99;100.00
9740;BME280;4909;42.680;26.324;2023-04-04T08:27:05;97362.09;;;13.03;100.00
9740;BME280;4909;42.680;26.324;2023-04-04T08:29:33;97362.09;;;13.03;100.00
9740;BME280;4909;42.680;26.324;2023-04-04T08:32:00;97373.16;;;13.10;100.00
9740;BME280;4909;42.680;26.324;2023-04-04T08:34:27;97372.00;;;13.14;100.00
9740;BME280;4909;42.680;26.324;2023-04-04T08:36:54;97363.94;;;13.26;100.00
9740;BME280;4909;42.680;26.324;2023-04-04T08:39:20;97354.72;;;13.19;100.00
9740;BME280;4909;42.680;26.324;2023-04-04T08:41:56;97370.16;;;13.38;100.00
9740;BME280;4909;42.680;26.324;2023-04-04T08:44:27;97370.91;;;13.40;100.00
9740;BME280;4909;42.680;26.324;2023-04-04T08:46:58;97366.13;;;13.32;100.00
9740;BME280;4909;42.680;26.324;2023-04-04T08:49:26;97386.13;;;13.38;100.00
9740;BME280;4909;42.680;26.324;2023-04-04T08:51:56;97389.91;;;13.35;100.00
9740;BME280;4909;42.680;26.324;2023-04-04T08:54:24;97387.53;;;13.20;100.00
9740;BME280;4909;42.680;26.324;2023-04-04T08:56:52;97383.59;;;12.89;100.00
9740;BME280;4909;42.680;26.324;2023-04-04T08:59:20;97394.97;;;12.91;100.00
9740;BME280;4909;42.680;26.324;2023-04-04T09:01:46;97387.09;;;12.89;100.00
9740;BME280;4909;42.680;26.324;2023-04-04T09:04:15;97391.28;;;13.04;100.00
9740;BME280;4909;42.680;26.324;2023-04-04T09:06:42;97396.81;;;13.14;100.00
9740;BME280;4909;42.680;26.324;2023-04-04T09:09:10;97389.78;;;13.13;100.00
9740;BME280;4909;42.680;26.324;2023-04-04T09:11:38;97394.31;;;13.24;100.00
9740;BME280;4909;42.680;26.324;2023-04-04T09:14:05;97409.47;;;13.23;100.00
9740;BME280;4909;42.680;26.324;2023-04-04T09:16:32;97407.88;;;13.21;100.00
9740;BME280;4909;42.680;26.324;2023-04-04T09:18:59;97391.91;;;13.21;100.00
9740;BME280;4909;42.680;26.324;2023-04-04T09:21:27;97400.78;;;13.32;100.00
9740;BME280;4909;42.680;26.324;2023-04-04T09:23:58;97396.13;;;13.23;100.00
9740;BME280;4909;42.680;26.324;2023-04-04T09:26:25;97389.44;;;13.18;100.00
9740;BME280;4909;42.680;26.324;2023-04-04T09:28:52;97393.91;;;13.17;100.00
9740;BME280;4909;42.680;26.324;2023-04-04T09:31:19;97404.03;;;13.25;100.00
9740;BME280;4909;42.680;26.324;2023-04-04T09:33:47;97403.22;;;13.35;100.00
9740;BME280;4909;42.680;26.324;2023-04-04T09:36:14;97407.06;;;13.31;100.00
9740;BME280;4909;42.680;26.324;2023-04-04T09:38:43;97413.28;;;12.95;100.00
9740;BME280;4909;42.680;26.324;2023-04-04T09:41:13;97414.66;;;13.01;100.00
9740;BME280;4909;42.680;26.324;2023-04-04T09:43:43;97418.88;;;13.16;100.00
9740;BME280;4909;42.680;26.324;2023-04-04T09:46:10;97418.03;;;13.16;100.00
9740;BME280;4909;42.680;26.324;2023-04-04T09:48:37;97411.66;;;13.05;100.00
9740;BME280;4909;42.680;26.324;2023-04-04T09:51:05;97421.03;;;13.11;100.00
9740;BME280;4909;42.680;26.324;2023-04-04T09:53:33;97401.09;;;13.17;100.00
9740;BME280;4909;42.680;26.324;2023-04-04T09:56:03;97403.47;;;13.43;100.00
9740;BME280;4909;42.680;26.324;2023-04-04T09:58:29;97407.25;;;13.52;100.00
9740;BME280;4909;42.680;26.324;2023-04-04T10:01:01;97405.94;;;13.58;100.00
9740;BME280;4909;42.680;26.324;2023-04-04T10:03:29;97410.38;;;13.70;100.00
9740;BME280;4909;42.680;26.324;2023-04-04T10:05:58;97408.81;;;13.89;100.00
9740;BME280;4909;42.680;26.324;2023-04-04T10:08:26;97402.91;;;14.08;100.00
9740;BME280;4909;42.680;26.324;2023-04-04T10:10:56;97398.28;;;14.10;100.00
9740;BME280;4909;42.680;26.324;2023-04-04T10:13:25;97395.03;;;14.18;100.00
9740;BME280;4909;42.680;26.324;2023-04-04T10:15:53;97397.59;;;14.30;100.00
9740;BME280;4909;42.680;26.324;2023-04-04T10:18:22;97410.56;;;14.68;100.00
9740;BME280;4909;42.680;26.324;2023-04-04T10:20:49;97345.41;;;14.60;100.00
9740;BME280;4909;42.680;26.324;2023-04-04T10:23:16;97380.44;;;14.77;100.00
9740;BME280;4909;42.680;26.324;2023-04-04T10:25:44;97404.56;;;14.98;100.00
9740;BME280;4909;42.680;26.324;2023-04-04T10:28:11;97402.84;;;15.08;100.00
9740;BME280;4909;42.680;26.324;2023-04-04T10:30:41;97420.97;;;15.05;100.00
9740;BME280;4909;42.680;26.324;2023-04-04T10:33:15;97413.06;;;15.03;100.00
9740;BME280;4909;42.680;26.324;2023-04-04T10:35:46;97411.94;;;15.17;100.00
9740;BME280;4909;42.680;26.324;2023-04-04T10:38:20;97404.09;;;15.04;100.00
9740;BME280;4909;42.680;26.324;2023-04-04T10:40:52;97393.53;;;14.92;100.00
9740;BME280;4909;42.680;26.324;2023-04-04T10:43:25;97375.25;;;14.65;100.00
9740;BME280;4909;42.680;26.324;2023-04-04T10:45:54;97387.88;;;14.63;100.00
9740;BME280;4909;42.680;26.324;2023-04-04T10:48:22;97386.22;;;14.62;100.00
9740;BME280;4909;42.680;26.324;2023-04-04T10:50:51;97397.59;;;14.64;100.00
9740;BME280;4909;42.680;26.324;2023-04-04T10:53:19;97391.66;;;14.71;100.00
9740;BME280;4909;42.680;26.324;2023-04-04T10:55:47;97390.94;;;14.36;100.00
9740;BME280;4909;42.680;26.324;2023-04-04T10:58:14;97395.66;;;14.32;100.00
9740;BME280;4909;42.680;26.324;2023-04-04T11:00:51;97403.19;;;14.61;100.00
9740;BME280;4909;42.680;26.324;2023-04-04T11:03:21;97375.25;;;14.76;100.00
9740;BME280;4909;42.680;26.324;2023-04-04T11:05:48;97391.03;;;14.79;100.00
9740;BME280;4909;42.680;26.324;2023-04-04T11:08:22;97392.22;;;14.86;98.71
9740;BME280;4909;42.680;26.324;2023-04-04T11:10:50;97396.00;;;15.15;98.07
9740;BME280;4909;42.680;26.324;2023-04-04T11:13:19;97399.69;;;15.14;96.40
9740;BME280;4909;42.680;26.324;2023-04-04T11:15:57;97385.16;;;15.28;97.52
9740;BME280;4909;42.680;26.324;2023-04-04T11:18:46;97388.69;;;15.49;98.07
9740;BME280;4909;42.680;26.324;2023-04-04T11:21:14;97368.94;;;15.52;97.73
9740;BME280;4909;42.680;26.324;2023-04-04T11:24:12;97404.56;;;15.73;92.24
9740;BME280;4909;42.680;26.324;2023-04-04T11:26:41;97400.22;;;16.02;91.50
9740;BME280;4909;42.680;26.324;2023-04-04T11:29:19;97401.22;;;16.32;91.64
9740;BME280;4909;42.680;26.324;2023-04-04T11:31:47;97390.28;;;16.65;90.91
9740;BME280;4909;42.680;26.324;2023-04-04T11:34:28;97396.56;;;16.55;84.97
9740;BME280;4909;42.680;26.324;2023-04-04T11:36:56;97388.00;;;16.61;86.33
9740;BME280;4909;42.680;26.324;2023-04-04T11:39:27;97385.81;;;16.85;85.30
9740;BME280;4909;42.680;26.324;2023-04-04T11:41:56;97343.94;;;16.84;85.72
9740;BME280;4909;42.680;26.324;2023-04-04T11:44:29;97363.84;;;17.20;86.64
9740;BME280;4909;42.680;26.324;2023-04-04T11:47:01;97379.53;;;17.15;81.35
9740;BME280;4909;42.680;26.324;2023-04-04T11:49:33;97370.59;;;16.95;80.79
9740;BME280;4909;42.680;26.324;2023-04-04T11:52:03;97367.59;;;16.69;81.67
9740;BME280;4909;42.680;26.324;2023-04-04T11:54:31;97367.03;;;16.75;84.30
9740;BME280;4909;42.680;26.324;2023-04-04T11:56:57;97360.97;;;16.73;82.08
9740;BME280;4909;42.680;26.324;2023-04-04T11:59:24;97379.56;;;16.65;80.00
9740;BME280;4909;42.680;26.324;2023-04-04T12:01:53;97360.88;;;16.54;82.08
9740;BME280;4909;42.680;26.324;2023-04-04T12:04:20;97343.00;;;16.55;82.51
9740;BME280;4909;42.680;26.324;2023-04-04T12:06:50;97349.31;;;16.53;84.42
9740;BME280;4909;42.680;26.324;2023-04-04T12:09:17;97357.78;;;16.49;84.09
9740;BME280;4909;42.680;26.324;2023-04-04T12:11:45;97355.06;;;16.70;84.82
9740;BME280;4909;42.680;26.324;2023-04-04T12:14:16;97348.16;;;16.77;85.91
9740;BME280;4909;42.680;26.324;2023-04-04T12:16:44;97349.94;;;16.67;84.09
9740;BME280;4909;42.680;26.324;2023-04-04T12:19:10;97351.25;;;16.82;80.97
9740;BME280;4909;42.680;26.324;2023-04-04T12:21:38;97350.31;;;17.12;80.53
9740;BME280;4909;42.680;26.324;2023-04-04T12:24:07;97354.34;;;16.77;79.73
9740;BME280;4909;42.680;26.324;2023-04-04T12:26:36;97356.28;;;16.66;82.83
9740;BME280;4909;42.680;26.324;2023-04-04T12:29:03;97346.84;;;16.71;81.02
9740;BME280;4909;42.680;26.324;2023-04-04T12:31:32;97356.38;;;16.55;80.01
9740;BME280;4909;42.680;26.324;2023-04-04T12:33:59;97356.19;;;16.86;80.38
9740;BME280;4909;42.680;26.324;2023-04-04T12:36:28;97349.31;;;16.53;79.67
9740;BME280;4909;42.680;26.324;2023-04-04T12:38:56;97343.41;;;16.50;80.04
9740;BME280;4909;42.680;26.324;2023-04-04T12:41:25;97320.41;;;16.47;80.56
9740;BME280;4909;42.680;26.324;2023-04-04T12:43:59;97329.53;;;16.35;78.64
9740;BME280;4909;42.680;26.324;2023-04-04T12:46:26;97335.38;;;16.20;80.34
9740;BME280;4909;42.680;26.324;2023-04-04T12:48:54;97323.22;;;16.06;82.02
9740;BME280;4909;42.680;26.324;2023-04-04T12:51:29;97326.63;;;16.18;80.15
9740;BME280;4909;42.680;26.324;2023-04-04T12:53:57;97328.13;;;16.01;81.88
9740;BME280;4909;42.680;26.324;2023-04-04T12:56:27;97282.53;;;15.82;79.42
9740;BME280;4909;42.680;26.324;2023-04-04T12:58:59;97285.63;;;15.77;80.05
9740;BME280;4909;42.680;26.324;2023-04-04T13:01:28;97281.16;;;15.87;80.17
9740;BME280;4909;42.680;26.324;2023-04-04T13:03:56;97323.84;;;16.19;78.10
9740;BME280;4909;42.680;26.324;2023-04-04T13:06:27;97324.56;;;16.21;77.85
9740;BME280;4909;42.680;26.324;2023-04-04T13:08:54;97326.69;;;16.37;78.02
9740;BME280;4909;42.680;26.324;2023-04-04T13:11:22;97322.94;;;16.49;79.05